createdAt,value
2022-12-19T00:00:19.705Z,8.83
2022-12-19T00:03:05.876Z,9.33
2022-12-19T00:05:51.424Z,8.90
2022-12-19T00:08:36.734Z,9.50
2022-12-19T00:11:23.916Z,8.80
2022-12-19T00:14:12.353Z,9.50
2022-12-19T00:16:58.044Z,8.93
2022-12-19T00:19:44.286Z,9.23
2022-12-19T00:22:29.769Z,9.47
2022-12-19T00:25:15.416Z,10.50
2022-12-19T00:28:01.523Z,9.37
2022-12-19T00:30:47.101Z,9.77
2022-12-19T00:33:33.476Z,10.40
2022-12-19T00:36:23.889Z,8.70
2022-12-19T00:39:10.539Z,9.97
2022-12-19T00:41:55.712Z,9.07
2022-12-19T00:44:41.362Z,9.43
2022-12-19T00:47:27.007Z,9.50
2022-12-19T00:50:12.333Z,9.23
2022-12-19T00:52:57.750Z,8.57
2022-12-19T00:55:43.207Z,8.83
2022-12-19T00:58:28.863Z,9.10
2022-12-19T01:01:17.264Z,8.83
2022-12-19T01:04:28.333Z,9.53
2022-12-19T01:07:10.641Z,10.43
2022-12-19T01:09:56.167Z,9.63
2022-12-19T01:12:47.323Z,9.20
2022-12-19T01:15:32.595Z,10.33
2022-12-19T01:18:18.200Z,10.60
2022-12-19T01:21:07.689Z,10.37
2022-12-19T01:23:53.168Z,9.40
2022-12-19T01:26:38.403Z,9.87
2022-12-19T01:29:23.884Z,10.27
2022-12-19T01:32:09.437Z,10.53
2022-12-19T01:34:55.099Z,10.40
2022-12-19T01:37:40.285Z,10.33
2022-12-19T01:40:25.966Z,10.03
2022-12-19T01:43:15.709Z,9.60
2022-12-19T01:46:11.071Z,8.80
2022-12-19T01:48:57.026Z,9.37
2022-12-19T01:51:45.737Z,8.70
2022-12-19T01:54:37.642Z,9.43
2022-12-19T01:57:23.568Z,9.30
2022-12-19T02:00:10.121Z,8.20
2022-12-19T02:03:28.900Z,9.60
2022-12-19T02:06:16.239Z,9.40
2022-12-19T02:09:02.232Z,9.70
2022-12-19T02:11:47.500Z,8.90
2022-12-19T02:14:34.743Z,8.87
2022-12-19T02:17:38.842Z,9.30
2022-12-19T02:20:37.971Z,9.57
2022-12-19T02:23:23.418Z,9.60
2022-12-19T02:26:11.977Z,10.37
2022-12-19T02:29:21.945Z,9.73
2022-12-19T02:32:22.151Z,9.40
2022-12-19T02:35:22.647Z,10.13
2022-12-19T02:38:15.466Z,9.80
2022-12-19T02:41:06.515Z,9.20
2022-12-19T02:43:58.776Z,9.83
2022-12-19T02:46:46.054Z,9.47
2022-12-19T02:49:34.812Z,9.07
2022-12-19T02:52:20.104Z,9.47
2022-12-19T02:55:10.233Z,9.07
2022-12-19T02:58:21.833Z,7.97
2022-12-19T03:01:29.665Z,8.37
2022-12-19T03:04:44.435Z,8.43
2022-12-19T03:07:35.156Z,8.60
2022-12-19T03:10:41.632Z,9.30
2022-12-19T03:13:42.002Z,8.40
2022-12-19T03:16:28.316Z,8.40
2022-12-19T03:19:14.822Z,8.23
2022-12-19T03:22:01.306Z,9.67
2022-12-19T03:24:47.367Z,8.37
2022-12-19T03:27:36.511Z,9.43
2022-12-19T03:30:22.320Z,9.67
2022-12-19T03:33:10.456Z,8.17
2022-12-19T03:35:58.485Z,10.23
2022-12-19T03:38:47.364Z,9.17
2022-12-19T03:41:53.130Z,10.87
2022-12-19T03:44:41.675Z,10.07
2022-12-19T03:47:33.941Z,11.27
2022-12-19T03:50:19.508Z,10.93
2022-12-19T03:53:37.014Z,12.07
2022-12-19T03:56:42.859Z,11.57
2022-12-19T03:59:41.155Z,12.10
2022-12-19T04:02:27.681Z,12.23
2022-12-19T04:05:19.281Z,11.70
2022-12-19T04:08:07.868Z,11.70
2022-12-19T04:10:57.984Z,14.13
2022-12-19T04:13:51.647Z,14.13
2022-12-19T04:16:46.521Z,12.80
2022-12-19T04:19:42.470Z,12.38
2022-12-19T04:22:48.311Z,14.57
2022-12-19T04:25:40.767Z,13.23
2022-12-19T04:28:34.031Z,13.17
2022-12-19T04:31:20.997Z,12.83
2022-12-19T04:34:06.326Z,13.93
2022-12-19T04:36:51.824Z,13.47
2022-12-19T04:39:37.256Z,14.23
2022-12-19T04:42:22.553Z,13.30
2022-12-19T04:45:08.671Z,13.07
2022-12-19T04:47:54.535Z,10.63
2022-12-19T04:50:40.100Z,12.13
2022-12-19T04:53:25.859Z,11.90
2022-12-19T04:56:11.461Z,11.60
2022-12-19T04:59:00.933Z,12.33
2022-12-19T05:01:46.418Z,12.70
2022-12-19T05:04:32.229Z,12.63
2022-12-19T05:07:17.920Z,12.47
2022-12-19T05:10:03.779Z,11.27
2022-12-19T05:12:49.106Z,11.53
2022-12-19T05:15:34.795Z,11.37
2022-12-19T05:18:20.135Z,10.93
2022-12-19T05:21:06.500Z,12.47
2022-12-19T05:23:51.980Z,14.23
2022-12-19T05:26:40.716Z,13.23
2022-12-19T05:29:25.957Z,12.67
2022-12-19T05:32:11.387Z,12.80
2022-12-19T05:34:56.889Z,12.80
2022-12-19T05:37:42.455Z,12.70
2022-12-19T05:40:28.101Z,11.43
2022-12-19T05:43:13.388Z,11.73
2022-12-19T05:45:59.219Z,10.63
2022-12-19T05:48:44.750Z,10.63
2022-12-19T05:51:30.845Z,10.03
2022-12-19T05:54:16.711Z,10.37
2022-12-19T05:57:02.023Z,11.87
2022-12-19T05:59:47.608Z,11.47
2022-12-19T06:02:33.639Z,11.47
2022-12-19T06:05:19.027Z,11.47
2022-12-19T06:08:05.302Z,10.20
2022-12-19T06:10:50.587Z,11.10
2022-12-19T06:13:38.047Z,11.90
2022-12-19T06:16:23.737Z,11.17
2022-12-19T06:19:09.137Z,11.93
2022-12-19T06:21:54.889Z,10.93
2022-12-19T06:24:40.417Z,12.23
2022-12-19T06:27:25.869Z,12.33
2022-12-19T06:30:11.925Z,12.10
2022-12-19T06:32:57.373Z,12.07
2022-12-19T06:35:43.029Z,13.20
2022-12-19T06:38:29.591Z,12.63
2022-12-19T06:41:34.488Z,12.90
2022-12-19T06:44:19.861Z,12.80
2022-12-19T06:47:05.615Z,11.47
2022-12-19T06:49:50.908Z,12.13
2022-12-19T06:52:36.547Z,12.57
2022-12-19T06:55:21.950Z,11.07
2022-12-19T06:58:07.488Z,11.23
2022-12-19T07:00:53.800Z,11.93
2022-12-19T07:03:41.253Z,10.90
2022-12-19T07:06:26.563Z,11.13
2022-12-19T07:09:11.746Z,11.03
2022-12-19T07:11:58.065Z,12.00
2022-12-19T07:14:43.447Z,11.30
2022-12-19T07:17:29.505Z,12.87
2022-12-19T07:20:16.829Z,10.70
2022-12-19T07:23:04.059Z,10.37
2022-12-19T07:25:49.748Z,9.67
2022-12-19T07:28:35.902Z,10.97
2022-12-19T07:31:21.854Z,8.30
2022-12-19T07:34:07.013Z,7.40
2022-12-19T07:36:52.682Z,8.20
2022-12-19T07:39:37.949Z,8.30
2022-12-19T07:42:25.238Z,9.10
2022-12-19T07:45:13.359Z,8.87
2022-12-19T07:48:03.251Z,8.67
2022-12-19T07:50:49.189Z,9.43
2022-12-19T07:53:34.713Z,8.33
2022-12-19T07:56:20.277Z,9.73
2022-12-19T07:59:06.067Z,9.00
2022-12-19T08:01:52.085Z,9.80
2022-12-19T08:04:37.532Z,9.10
2022-12-19T08:07:23.132Z,9.40
2022-12-19T08:10:09.261Z,8.47
2022-12-19T08:12:54.667Z,7.97
2022-12-19T08:15:40.354Z,8.43
2022-12-19T08:18:26.017Z,9.40
2022-12-19T08:21:11.366Z,8.93
2022-12-19T08:23:57.100Z,10.47
2022-12-19T08:26:47.431Z,10.13
2022-12-19T08:29:32.975Z,10.03
2022-12-19T08:32:21.581Z,10.57
2022-12-19T08:35:08.234Z,7.87
2022-12-19T08:37:54.023Z,8.80
2022-12-19T08:40:44.283Z,9.80
2022-12-19T08:43:33.484Z,9.33
2022-12-19T08:46:20.448Z,8.93
2022-12-19T08:49:06.224Z,7.93
2022-12-19T08:51:51.949Z,9.07
2022-12-19T08:54:37.354Z,7.33
2022-12-19T08:57:22.784Z,6.63
2022-12-19T09:00:09.024Z,6.57
2022-12-19T09:02:55.359Z,6.90
2022-12-19T09:05:59.491Z,5.73
2022-12-19T09:08:46.909Z,5.90
2022-12-19T09:11:32.636Z,6.40
2022-12-19T09:14:21.678Z,6.00
2022-12-19T09:17:07.365Z,5.70
2022-12-19T09:19:52.623Z,6.30
2022-12-19T09:22:38.085Z,6.23
2022-12-19T09:25:23.483Z,6.27
2022-12-19T09:31:17.445Z,6.40
2022-12-19T09:34:03.193Z,6.00
2022-12-19T09:36:48.387Z,5.67
2022-12-19T09:39:35.200Z,6.97
2022-12-19T09:42:50.699Z,5.73
2022-12-19T09:45:55.262Z,5.80
2022-12-19T09:48:41.204Z,5.20
2022-12-19T09:52:11.094Z,5.60
2022-12-19T09:55:19.068Z,5.27
2022-12-19T09:58:23.926Z,5.10
2022-12-19T10:01:21.504Z,5.22
2022-12-19T10:04:12.906Z,5.70
2022-12-19T10:07:18.275Z,5.77
2022-12-19T10:11:53.871Z,5.30
2022-12-19T10:13:31.378Z,4.33
2022-12-19T10:16:41.755Z,4.43
2022-12-19T10:19:36.409Z,3.97
2022-12-19T10:25:27.813Z,3.77
2022-12-19T10:28:30.470Z,3.97
2022-12-19T10:31:31.631Z,3.50
2022-12-19T10:34:24.972Z,3.80
2022-12-19T10:37:36.812Z,4.77
2022-12-19T10:40:34.756Z,4.33
2022-12-19T10:43:53.685Z,4.17
2022-12-19T10:46:46.114Z,3.80
2022-12-19T10:49:31.440Z,4.00
2022-12-19T10:52:47.675Z,4.13
2022-12-19T10:55:40.310Z,4.00
2022-12-19T10:58:25.918Z,4.93
2022-12-19T11:01:15.644Z,4.07
2022-12-19T11:04:36.056Z,4.07
2022-12-19T11:07:22.372Z,3.63
2022-12-19T11:12:50.573Z,3.50
2022-12-19T11:19:59.221Z,3.93
2022-12-19T11:23:16.412Z,3.50
2022-12-19T11:29:26.878Z,5.10
2022-12-19T11:29:30.013Z,3.90
2022-12-19T11:29:31.326Z,4.83
2022-12-19T11:33:18.707Z,3.47
2022-12-19T11:36:05.169Z,3.90
2022-12-19T11:38:54.234Z,4.00
2022-12-19T11:41:48.851Z,3.87
2022-12-19T11:48:00.332Z,3.40
2022-12-19T11:51:04.134Z,3.90
2022-12-19T11:54:02.907Z,3.95
2022-12-19T11:56:48.489Z,4.33
2022-12-19T11:59:38.581Z,3.90
2022-12-19T12:02:26.559Z,4.07
2022-12-19T12:05:41.762Z,4.20
2022-12-19T12:18:59.247Z,4.00
2022-12-19T12:26:33.968Z,4.23
2022-12-19T12:31:00.176Z,4.30
2022-12-19T12:31:27.954Z,4.18
2022-12-19T12:31:50.992Z,3.90
2022-12-19T12:31:57.583Z,3.80
2022-12-19T12:35:33.434Z,3.87
2022-12-19T12:39:34.314Z,3.70
2022-12-19T12:42:25.381Z,3.92
2022-12-19T12:45:22.525Z,3.53
2022-12-19T12:48:29.083Z,3.50
2022-12-19T12:51:15.551Z,4.00
2022-12-19T12:54:09.531Z,4.10
2022-12-19T12:56:55.517Z,4.07
2022-12-19T12:59:45.873Z,4.40
2022-12-19T13:02:33.942Z,4.10
2022-12-19T13:05:32.109Z,4.60
2022-12-19T13:08:36.871Z,4.63
2022-12-19T13:11:43.921Z,5.50
2022-12-19T13:14:44.050Z,5.40
2022-12-19T13:17:35.483Z,4.87
2022-12-19T13:20:24.174Z,4.83
2022-12-19T13:23:34.836Z,4.43
2022-12-19T13:26:44.803Z,4.33
2022-12-19T13:29:34.936Z,4.23
2022-12-19T13:32:22.512Z,4.10
2022-12-19T13:36:15.513Z,4.37
2022-12-19T13:40:02.076Z,4.10
2022-12-19T13:41:48.368Z,4.90
2022-12-19T13:44:39.854Z,4.53
2022-12-19T13:47:29.536Z,4.33
2022-12-19T13:50:39.347Z,4.57
2022-12-19T13:53:28.138Z,3.97
2022-12-19T13:56:16.344Z,4.37
2022-12-19T13:59:04.720Z,4.00
2022-12-19T14:01:52.900Z,4.60
2022-12-19T14:04:41.081Z,4.30
2022-12-19T14:07:36.932Z,4.57
2022-12-19T14:11:35.132Z,4.40
2022-12-19T14:14:06.755Z,4.73
2022-12-19T14:17:07.105Z,4.60
2022-12-19T14:19:53.480Z,4.60
2022-12-19T14:23:00.131Z,4.47
2022-12-19T14:28:24.403Z,4.70
2022-12-19T14:29:28.624Z,4.37
2022-12-19T14:33:39.880Z,4.00
2022-12-19T14:36:08.613Z,4.60
2022-12-19T14:39:21.193Z,4.10
2022-12-19T14:42:09.181Z,4.77
2022-12-19T14:52:35.215Z,4.97
2022-12-19T14:54:03.916Z,4.23
2022-12-19T14:54:25.925Z,4.47
2022-12-19T14:58:52.465Z,4.50
2022-12-19T15:01:10.131Z,4.47
2022-12-19T15:04:47.662Z,4.70
2022-12-19T15:07:13.305Z,5.00
2022-12-19T15:11:08.385Z,4.60
2022-12-19T15:14:47.044Z,5.30
2022-12-19T15:16:31.633Z,5.17
2022-12-19T15:19:16.979Z,5.10
2022-12-19T15:22:02.499Z,5.03
2022-12-19T15:24:48.250Z,5.37
2022-12-19T15:27:33.804Z,6.00
2022-12-19T15:30:21.980Z,6.23
2022-12-19T15:33:14.329Z,5.43
2022-12-19T15:36:00.042Z,6.57
2022-12-19T15:38:45.609Z,6.47
2022-12-19T15:41:31.389Z,7.93
2022-12-19T15:44:27.778Z,7.30
2022-12-19T15:47:32.636Z,5.93
2022-12-19T15:50:23.744Z,6.25
2022-12-19T15:53:40.238Z,6.90
2022-12-19T15:56:32.974Z,5.90
2022-12-19T15:59:37.921Z,5.50
2022-12-19T16:02:27.942Z,5.67
2022-12-19T16:05:24.191Z,5.37
2022-12-19T16:08:17.832Z,5.53
2022-12-19T16:11:03.460Z,5.10
2022-12-19T16:13:58.187Z,5.37
2022-12-19T16:16:45.061Z,5.38
2022-12-19T16:19:31.454Z,5.33
2022-12-19T16:22:19.796Z,4.70
2022-12-19T16:25:06.279Z,5.47
2022-12-19T16:27:58.399Z,5.30
2022-12-19T16:30:44.646Z,5.87
2022-12-19T16:33:31.058Z,5.37
2022-12-19T16:36:16.686Z,5.30
2022-12-19T16:39:02.141Z,4.97
2022-12-19T16:41:47.905Z,5.13
2022-12-19T16:44:35.933Z,4.87
2022-12-19T16:47:21.445Z,4.50
2022-12-19T16:50:27.324Z,4.70
2022-12-19T16:53:12.968Z,4.83
2022-12-19T16:56:00.453Z,4.27
2022-12-19T16:58:45.805Z,4.33
2022-12-19T17:01:31.561Z,5.43
2022-12-19T17:04:28.729Z,4.47
2022-12-19T17:07:14.043Z,4.93
2022-12-19T17:09:59.431Z,5.17
2022-12-19T17:12:46.140Z,4.60
2022-12-19T17:15:36.565Z,4.20
2022-12-19T17:18:29.272Z,4.53
2022-12-19T17:21:21.412Z,4.43
2022-12-19T17:24:12.731Z,4.40
2022-12-19T17:26:58.167Z,5.00
2022-12-19T17:29:44.076Z,4.87
2022-12-19T17:32:30.173Z,4.43
2022-12-19T17:35:21.246Z,4.70
2022-12-19T17:38:16.421Z,4.73
2022-12-19T17:41:01.992Z,4.87
2022-12-19T17:43:47.431Z,4.87
2022-12-19T17:46:33.364Z,6.80
2022-12-19T17:49:26.548Z,4.93
2022-12-19T17:52:18.092Z,4.80
2022-12-19T17:55:17.801Z,4.77
2022-12-19T17:58:03.141Z,4.80
2022-12-19T18:00:51.071Z,4.90
2022-12-19T18:03:36.781Z,4.70
2022-12-19T18:06:22.011Z,5.00
2022-12-19T18:09:23.485Z,4.50
2022-12-19T18:12:09.104Z,4.50
2022-12-19T18:14:54.760Z,4.53
2022-12-19T18:17:41.089Z,5.43
2022-12-19T18:20:31.877Z,7.10
2022-12-19T18:23:20.394Z,7.43
2022-12-19T18:26:06.032Z,7.53
2022-12-19T18:28:51.155Z,6.07
2022-12-19T18:31:37.188Z,5.50
2022-12-19T18:34:25.445Z,4.93
2022-12-19T18:37:15.149Z,5.20
2022-12-19T18:40:00.573Z,4.43
2022-12-19T18:42:46.726Z,5.33
2022-12-19T18:45:41.230Z,5.73
2022-12-19T18:48:32.900Z,5.55
2022-12-19T18:51:21.039Z,4.70
2022-12-19T18:54:18.202Z,6.00
2022-12-19T18:57:03.411Z,4.90
2022-12-19T18:59:50.462Z,5.20
2022-12-19T19:02:36.417Z,5.60
2022-12-19T19:05:25.247Z,5.53
2022-12-19T19:08:27.984Z,5.73
2022-12-19T19:11:14.476Z,5.63
2022-12-19T19:14:00.047Z,5.67
2022-12-19T19:16:45.937Z,6.33
2022-12-19T19:19:31.711Z,5.47
2022-12-19T19:22:17.295Z,5.57
2022-12-19T19:25:02.719Z,5.50
2022-12-19T19:27:47.974Z,4.47
2022-12-19T19:30:38.363Z,4.60
2022-12-19T19:33:28.395Z,5.23
2022-12-19T19:36:22.418Z,5.07
2022-12-19T19:39:07.770Z,4.90
2022-12-19T19:41:53.915Z,5.53
2022-12-19T19:44:39.688Z,5.17
2022-12-19T19:47:29.951Z,5.13
2022-12-19T19:50:15.356Z,5.17
2022-12-19T19:53:01.436Z,4.47
2022-12-19T19:55:56.746Z,3.93
2022-12-19T19:58:42.048Z,5.07
2022-12-19T20:01:28.109Z,4.40
2022-12-19T20:04:13.844Z,5.40
2022-12-19T20:06:59.097Z,5.60
2022-12-19T20:09:44.718Z,5.53
2022-12-19T20:12:30.087Z,5.93
2022-12-19T20:15:15.648Z,5.87
2022-12-19T20:18:01.360Z,6.37
2022-12-19T20:20:49.918Z,6.33
2022-12-19T20:23:35.213Z,5.83
2022-12-19T20:26:20.895Z,6.13
2022-12-19T20:29:06.916Z,6.27
2022-12-19T20:31:52.674Z,7.23
2022-12-19T20:34:38.045Z,6.60
2022-12-19T20:37:23.691Z,6.57
2022-12-19T20:40:10.019Z,6.10
2022-12-19T20:42:55.312Z,6.03
2022-12-19T20:45:40.830Z,6.20
2022-12-19T20:48:26.468Z,6.03
2022-12-19T20:51:14.117Z,6.27
2022-12-19T20:53:59.816Z,5.43
2022-12-19T20:56:45.563Z,5.50
2022-12-19T20:59:31.208Z,4.90
2022-12-19T21:02:17.162Z,4.90
2022-12-19T21:05:02.625Z,4.53
2022-12-19T21:07:48.138Z,4.37
2022-12-19T21:10:35.036Z,4.90
2022-12-19T21:13:21.667Z,5.30
2022-12-19T21:16:09.955Z,4.90
2022-12-19T21:18:55.352Z,4.37
2022-12-19T21:21:40.884Z,4.83
2022-12-19T21:24:26.698Z,4.80
2022-12-19T21:27:11.912Z,5.27
2022-12-19T21:29:57.508Z,4.87
2022-12-19T21:32:43.040Z,5.10
2022-12-19T21:35:28.555Z,5.83
2022-12-19T21:38:14.225Z,4.57
2022-12-19T21:41:03.046Z,6.07
2022-12-19T21:43:51.742Z,5.63
2022-12-19T21:46:38.103Z,4.87
2022-12-19T21:49:23.664Z,5.57
2022-12-19T21:52:10.160Z,6.43
2022-12-19T21:54:55.732Z,5.33
2022-12-19T21:57:42.067Z,6.03
2022-12-19T22:00:27.417Z,6.17
2022-12-19T22:03:14.938Z,5.73
2022-12-19T22:06:00.655Z,5.90
2022-12-19T22:08:46.591Z,5.47
2022-12-19T22:11:32.249Z,5.67
2022-12-19T22:14:18.229Z,5.60
2022-12-19T22:17:03.431Z,5.63
2022-12-19T22:19:49.069Z,5.93
2022-12-19T22:22:34.599Z,5.60
2022-12-19T22:25:20.138Z,5.57
2022-12-19T22:28:06.128Z,5.77
2022-12-19T22:30:51.420Z,6.20
2022-12-19T22:33:36.944Z,5.50
2022-12-19T22:36:28.089Z,5.73
2022-12-19T22:39:17.906Z,5.70
2022-12-19T22:42:03.581Z,5.97
2022-12-19T22:44:48.684Z,5.77
2022-12-19T22:47:34.080Z,5.47
2022-12-19T22:50:19.769Z,6.63
2022-12-19T22:53:08.151Z,6.73
2022-12-19T22:55:57.567Z,6.90
2022-12-19T22:58:45.421Z,7.00
2022-12-19T23:01:34.559Z,5.90
2022-12-19T23:04:20.198Z,5.90
2022-12-19T23:07:05.549Z,5.67
2022-12-19T23:09:51.246Z,4.67
2022-12-19T23:12:36.756Z,4.77
2022-12-19T23:15:22.450Z,4.77
2022-12-19T23:18:07.901Z,4.97
2022-12-19T23:21:07.728Z,5.20
2022-12-19T23:23:55.968Z,4.67
2022-12-19T23:26:41.982Z,5.20
2022-12-19T23:29:27.552Z,5.47
2022-12-19T23:32:13.174Z,5.00
2022-12-19T23:34:58.835Z,4.60
2022-12-19T23:37:45.049Z,4.60
2022-12-19T23:40:30.544Z,5.30
2022-12-19T23:43:16.009Z,5.17
2022-12-19T23:46:10.835Z,5.00
2022-12-19T23:48:56.496Z,5.00
2022-12-19T23:51:41.847Z,4.60
2022-12-19T23:54:27.579Z,5.07
2022-12-19T23:57:13.230Z,4.77
2022-12-19T23:59:58.531Z,4.13
